createdAt,value
2023-10-23T00:01:49.323Z,3.50
2023-10-23T00:04:16.777Z,3.10
2023-10-23T00:06:44.221Z,3.03
2023-10-23T00:09:11.255Z,2.73
2023-10-23T00:11:38.319Z,2.37
2023-10-23T00:14:09.432Z,2.70
2023-10-23T00:16:39.206Z,2.80
2023-10-23T00:19:06.246Z,2.30
2023-10-23T00:21:36.388Z,1.70
2023-10-23T00:24:03.368Z,1.93
2023-10-23T00:26:31.515Z,1.97
2023-10-23T00:29:01.291Z,2.03
2023-10-23T00:31:31.583Z,2.30
2023-10-23T00:33:58.683Z,2.00
2023-10-23T00:36:28.969Z,1.60
2023-10-23T00:38:55.893Z,2.00
2023-10-23T00:41:23.907Z,1.80
2023-10-23T00:43:50.945Z,1.70
2023-10-23T00:46:21.044Z,1.60
2023-10-23T00:48:52.230Z,1.50
2023-10-23T00:51:20.859Z,1.70
2023-10-23T00:53:48.544Z,2.33
2023-10-23T00:56:15.748Z,1.90
2023-10-23T00:58:43.993Z,2.50
2023-10-23T01:01:17.575Z,1.23
2023-10-23T01:03:44.952Z,2.70
2023-10-23T01:06:14.238Z,1.47
2023-10-23T01:08:42.176Z,1.40
2023-10-23T01:11:11.885Z,1.70
2023-10-23T01:13:40.816Z,1.60
2023-10-23T01:16:08.429Z,1.50
2023-10-23T01:18:37.961Z,1.57
2023-10-23T01:21:07.470Z,2.20
2023-10-23T01:23:37.955Z,1.67
2023-10-23T01:26:05.118Z,1.60
2023-10-23T01:28:32.308Z,1.83
2023-10-23T01:31:01.450Z,1.60
2023-10-23T01:33:32.328Z,1.43
2023-10-23T01:35:59.316Z,1.70
2023-10-23T01:38:26.679Z,1.37
2023-10-23T01:40:53.872Z,1.87
2023-10-23T01:43:20.847Z,1.90
2023-10-23T01:45:47.887Z,1.60
2023-10-23T01:48:14.893Z,1.43
2023-10-23T01:50:42.018Z,1.83
2023-10-23T01:53:09.161Z,1.63
2023-10-23T01:55:36.680Z,2.00
2023-10-23T01:58:04.909Z,1.90
2023-10-23T02:00:32.680Z,1.90
2023-10-23T02:03:02.585Z,1.80
2023-10-23T02:05:29.646Z,1.80
2023-10-23T02:07:59.857Z,2.23
2023-10-23T02:10:26.837Z,1.70
2023-10-23T02:12:53.905Z,1.67
2023-10-23T02:15:20.873Z,2.03
2023-10-23T02:17:48.648Z,1.70
2023-10-23T02:20:15.776Z,1.97
2023-10-23T02:22:42.762Z,2.00
2023-10-23T02:25:11.870Z,1.83
2023-10-23T02:27:44.880Z,1.73
2023-10-23T02:30:14.500Z,2.23
2023-10-23T02:32:41.558Z,1.67
2023-10-23T02:35:09.922Z,2.13
2023-10-23T02:37:36.912Z,2.00
2023-10-23T02:40:05.600Z,1.83
2023-10-23T02:42:32.599Z,1.77
2023-10-23T02:45:03.127Z,1.50
2023-10-23T02:47:30.088Z,2.27
2023-10-23T02:49:57.132Z,2.80
2023-10-23T02:52:28.172Z,2.10
2023-10-23T02:54:58.008Z,1.97
2023-10-23T02:57:25.110Z,1.83
2023-10-23T02:59:52.108Z,1.70
2023-10-23T03:02:19.845Z,1.80
2023-10-23T03:04:49.216Z,1.70
2023-10-23T03:07:18.344Z,2.07
2023-10-23T03:09:47.628Z,1.93
2023-10-23T03:12:15.770Z,1.97
2023-10-23T03:14:44.964Z,1.73
2023-10-23T03:17:12.728Z,1.90
2023-10-23T03:19:39.912Z,2.40
2023-10-23T03:22:07.137Z,1.80
2023-10-23T03:24:34.166Z,2.10
2023-10-23T03:27:01.127Z,1.57
2023-10-23T03:29:28.022Z,1.37
2023-10-23T03:31:57.902Z,1.70
2023-10-23T03:34:29.769Z,1.80
2023-10-23T03:36:56.748Z,2.30
2023-10-23T03:39:25.242Z,1.83
2023-10-23T03:41:52.225Z,1.70
2023-10-23T03:44:19.152Z,1.83
2023-10-23T03:46:48.499Z,1.73
2023-10-23T03:49:17.869Z,1.10
2023-10-23T03:51:44.846Z,1.67
2023-10-23T03:54:12.384Z,1.70
2023-10-23T03:56:41.455Z,1.67
2023-10-23T03:59:08.423Z,1.63
2023-10-23T04:01:35.454Z,1.60
2023-10-23T04:04:02.526Z,1.60
2023-10-23T04:06:29.566Z,1.63
2023-10-23T04:08:56.573Z,1.70
2023-10-23T04:11:26.219Z,1.90
2023-10-23T04:13:53.213Z,1.70
2023-10-23T04:16:20.210Z,1.80
2023-10-23T04:18:47.355Z,2.43
2023-10-23T04:21:14.478Z,1.53
2023-10-23T04:23:46.291Z,1.33
2023-10-23T04:26:13.341Z,1.20
2023-10-23T04:28:42.872Z,1.33
2023-10-23T04:31:09.890Z,1.40
2023-10-23T04:33:36.961Z,1.23
2023-10-23T04:36:04.135Z,1.23
2023-10-23T04:38:32.747Z,1.20
2023-10-23T04:40:59.836Z,1.30
2023-10-23T04:43:26.726Z,1.00
2023-10-23T04:45:54.736Z,1.60
2023-10-23T04:48:22.117Z,1.30
2023-10-23T04:50:49.146Z,1.43
2023-10-23T04:53:16.210Z,1.57
2023-10-23T04:55:43.552Z,1.40
2023-10-23T04:58:10.684Z,1.57
2023-10-23T05:00:39.642Z,1.70
2023-10-23T05:03:07.281Z,1.30
2023-10-23T05:05:35.213Z,1.50
2023-10-23T05:08:02.367Z,1.90
2023-10-23T05:10:29.391Z,1.27
2023-10-23T05:12:57.281Z,1.57
2023-10-23T05:15:29.846Z,1.87
2023-10-23T05:17:56.997Z,1.37
2023-10-23T05:20:26.740Z,1.83
2023-10-23T05:22:53.718Z,1.30
2023-10-23T05:25:20.674Z,1.17
2023-10-23T05:27:47.631Z,1.50
2023-10-23T05:30:17.558Z,1.37
2023-10-23T05:32:45.568Z,1.27
2023-10-23T05:35:15.793Z,1.50
2023-10-23T05:37:47.656Z,1.30
2023-10-23T05:40:14.755Z,1.30
2023-10-23T05:42:42.191Z,1.10
2023-10-23T05:45:09.871Z,1.33
2023-10-23T05:47:36.846Z,1.53
2023-10-23T05:50:05.500Z,1.30
2023-10-23T05:52:32.424Z,1.50
2023-10-23T05:55:00.503Z,1.20
2023-10-23T05:57:29.663Z,1.53
2023-10-23T05:59:56.602Z,1.23
2023-10-23T06:02:23.504Z,1.83
2023-10-23T06:04:50.761Z,2.10
2023-10-23T06:07:17.767Z,1.50
2023-10-23T06:09:50.184Z,1.37
2023-10-23T06:12:17.104Z,1.23
2023-10-23T06:14:44.068Z,1.93
2023-10-23T06:17:11.060Z,1.80
2023-10-23T06:19:38.237Z,1.37
2023-10-23T06:22:07.814Z,1.17
2023-10-23T06:24:37.673Z,1.30
2023-10-23T06:27:07.929Z,1.50
2023-10-23T06:29:34.988Z,1.23
2023-10-23T06:32:03.856Z,1.70
2023-10-23T06:34:31.016Z,1.40
2023-10-23T06:37:05.799Z,1.40
2023-10-23T06:39:32.841Z,1.80
2023-10-23T06:41:59.767Z,2.00
2023-10-23T06:44:31.149Z,1.60
2023-10-23T06:46:58.169Z,1.67
2023-10-23T06:49:27.528Z,1.20
2023-10-23T06:51:54.418Z,1.40
2023-10-23T06:54:24.385Z,1.27
2023-10-23T06:56:51.395Z,1.47
2023-10-23T06:59:25.624Z,1.60
2023-10-23T07:01:52.596Z,1.37
2023-10-23T07:04:19.507Z,1.60
2023-10-23T07:06:46.470Z,1.50
2023-10-23T07:09:21.089Z,1.90
2023-10-23T07:11:51.776Z,1.50
2023-10-23T07:14:19.562Z,1.73
2023-10-23T07:16:49.702Z,1.60
2023-10-23T07:19:16.794Z,1.83
2023-10-23T07:21:43.737Z,1.10
2023-10-23T07:24:10.909Z,1.77
2023-10-23T07:26:38.001Z,2.00
2023-10-23T07:29:05.069Z,2.80
2023-10-23T07:31:32.074Z,2.23
2023-10-23T07:33:59.117Z,1.90
2023-10-23T07:36:26.192Z,1.80
2023-10-23T07:38:53.218Z,1.67
2023-10-23T07:41:20.140Z,2.47
2023-10-23T07:43:47.085Z,1.53
2023-10-23T07:46:17.928Z,1.60
2023-10-23T07:48:46.491Z,2.10
2023-10-23T07:51:14.129Z,2.07
2023-10-23T07:53:41.286Z,2.50
2023-10-23T07:56:08.270Z,2.70
2023-10-23T07:58:35.732Z,2.77
2023-10-23T08:01:07.838Z,2.93
2023-10-23T08:03:36.238Z,2.83
2023-10-23T08:06:08.586Z,3.27
2023-10-23T08:08:37.003Z,3.57
2023-10-23T08:11:05.410Z,3.27
2023-10-23T08:13:32.977Z,3.03
2023-10-23T08:16:01.283Z,2.33
2023-10-23T08:18:38.235Z,2.13
2023-10-23T08:21:27.261Z,2.50
2023-10-23T08:23:55.615Z,2.47
2023-10-23T08:26:22.772Z,2.17
2023-10-23T08:29:01.931Z,2.63
2023-10-23T08:31:39.530Z,2.50
2023-10-23T08:34:08.820Z,1.80
2023-10-23T08:36:36.444Z,2.10
2023-10-23T08:39:04.620Z,2.03
2023-10-23T08:41:32.486Z,2.00
2023-10-23T08:43:59.966Z,2.00
2023-10-23T08:46:31.036Z,2.17
2023-10-23T08:48:58.147Z,2.30
2023-10-23T08:51:25.546Z,2.13
2023-10-23T08:54:10.133Z,3.13
2023-10-23T08:56:40.483Z,4.27
2023-10-23T08:59:10.127Z,5.10
2023-10-23T09:01:38.609Z,4.17
2023-10-23T09:04:07.916Z,4.93
2023-10-23T09:06:36.916Z,6.20
2023-10-23T09:09:06.295Z,6.20
2023-10-23T09:11:40.192Z,6.33
2023-10-23T09:14:07.178Z,6.20
2023-10-23T09:16:34.419Z,7.43
2023-10-23T09:19:01.513Z,9.30
2023-10-23T09:21:29.074Z,13.57
2023-10-23T09:23:59.313Z,7.07
2023-10-23T09:26:26.779Z,4.33
2023-10-23T09:28:54.285Z,2.90
2023-10-23T09:31:22.802Z,2.17
2023-10-23T09:33:51.737Z,2.67
2023-10-23T09:36:19.786Z,2.20
2023-10-23T09:39:01.366Z,2.63
2023-10-23T09:41:29.092Z,2.20
2023-10-23T09:43:58.548Z,2.43
2023-10-23T09:46:27.358Z,1.90
2023-10-23T09:49:00.905Z,2.33
2023-10-23T09:51:42.537Z,2.30
2023-10-23T09:54:21.551Z,2.97
2023-10-23T09:56:55.921Z,2.10
2023-10-23T09:59:56.631Z,2.40
2023-10-23T10:02:28.746Z,2.90
2023-10-23T10:05:10.213Z,2.70
2023-10-23T10:07:40.223Z,2.87
2023-10-23T10:10:08.671Z,2.67
2023-10-23T10:12:38.957Z,2.17
2023-10-23T10:15:13.422Z,2.90
2023-10-23T10:17:44.638Z,2.13
2023-10-23T10:20:12.636Z,2.07
2023-10-23T10:22:44.988Z,2.43
2023-10-23T10:25:12.999Z,2.37
2023-10-23T10:27:40.139Z,2.50
2023-10-23T10:30:27.392Z,2.10
2023-10-23T10:34:18.280Z,2.57
2023-10-23T10:36:02.144Z,1.80
2023-10-23T10:38:33.375Z,2.33
2023-10-23T10:41:02.510Z,2.77
2023-10-23T10:43:39.141Z,2.90
2023-10-23T10:46:15.882Z,2.03
2023-10-23T10:48:45.300Z,2.60
2023-10-23T10:51:25.891Z,3.03
2023-10-23T10:54:04.815Z,2.93
2023-10-23T10:56:32.201Z,2.10
2023-10-23T10:59:06.196Z,2.47
2023-10-23T11:01:34.460Z,2.20
2023-10-23T11:04:02.629Z,2.80
2023-10-23T11:06:30.767Z,2.30
2023-10-23T11:08:59.775Z,2.00
2023-10-23T11:11:27.975Z,2.00
2023-10-23T11:13:55.932Z,2.67
2023-10-23T11:16:24.033Z,2.00
2023-10-23T11:18:52.690Z,2.10
2023-10-23T11:21:24.213Z,3.10
2023-10-23T11:23:54.912Z,2.70
2023-10-23T11:26:21.935Z,2.57
2023-10-23T11:28:48.937Z,2.43
2023-10-23T11:31:16.006Z,1.80
2023-10-23T11:33:42.893Z,1.73
2023-10-23T11:36:10.377Z,1.60
2023-10-23T11:38:38.990Z,1.93
2023-10-23T11:41:05.966Z,2.20
2023-10-23T11:43:32.870Z,1.77
2023-10-23T11:46:00.044Z,1.80
2023-10-23T11:48:27.235Z,1.67
2023-10-23T11:50:54.940Z,1.57
2023-10-23T11:53:22.103Z,1.77
2023-10-23T11:55:50.420Z,1.33
2023-10-23T11:58:28.289Z,1.20
2023-10-23T12:00:55.292Z,1.10
2023-10-23T12:03:22.275Z,1.50
2023-10-23T12:05:49.301Z,1.80
2023-10-23T12:08:16.313Z,1.63
2023-10-23T12:10:43.205Z,1.80
2023-10-23T12:13:10.216Z,1.47
2023-10-23T12:15:37.325Z,0.93
2023-10-23T12:18:04.776Z,0.73
2023-10-23T12:20:32.639Z,0.50
2023-10-23T12:22:59.928Z,0.80
2023-10-23T12:25:26.981Z,1.40
2023-10-23T12:27:54.131Z,1.07
2023-10-23T12:30:23.565Z,1.30
2023-10-23T12:33:16.054Z,1.00
2023-10-23T12:35:40.303Z,1.20
2023-10-23T12:38:07.384Z,1.33
2023-10-23T12:40:37.011Z,1.70
2023-10-23T12:43:05.295Z,1.50
2023-10-23T12:45:33.064Z,1.50
2023-10-23T12:48:00.428Z,1.30
2023-10-23T12:50:27.597Z,1.17
2023-10-23T12:52:54.674Z,1.67
2023-10-23T12:55:21.820Z,1.60
2023-10-23T12:57:48.852Z,1.63
2023-10-23T13:00:16.225Z,1.30
2023-10-23T13:02:46.189Z,0.93
2023-10-23T13:05:13.261Z,1.03
2023-10-23T13:07:40.507Z,1.37
2023-10-23T13:10:07.933Z,1.63
2023-10-23T13:12:35.903Z,1.50
2023-10-23T13:15:04.366Z,1.90
2023-10-23T13:17:31.805Z,1.93
2023-10-23T13:19:58.987Z,1.70
2023-10-23T13:22:50.767Z,1.33
2023-10-23T13:25:19.820Z,1.50
2023-10-23T13:27:46.953Z,1.33
2023-10-23T13:30:13.910Z,1.63
2023-10-23T13:32:41.019Z,1.40
2023-10-23T13:35:09.149Z,1.70
2023-10-23T13:37:36.491Z,1.70
2023-10-23T13:40:07.944Z,1.93
2023-10-23T13:42:38.595Z,1.60
2023-10-23T13:45:06.672Z,1.93
2023-10-23T13:47:33.710Z,1.73
2023-10-23T13:50:00.879Z,1.57
2023-10-23T13:52:28.318Z,2.20
2023-10-23T13:54:59.711Z,2.13
2023-10-23T13:57:26.917Z,2.13
2023-10-23T13:59:54.752Z,1.43
2023-10-23T14:02:21.839Z,1.50
2023-10-23T14:04:49.501Z,1.60
2023-10-23T14:07:16.660Z,1.47
2023-10-23T14:09:47.382Z,1.90
2023-10-23T14:12:17.077Z,1.83
2023-10-23T14:14:44.363Z,1.50
2023-10-23T14:17:11.487Z,2.07
2023-10-23T14:19:48.029Z,1.63
2023-10-23T14:22:17.465Z,2.00
2023-10-23T14:24:44.738Z,1.97
2023-10-23T14:27:11.697Z,1.50
2023-10-23T14:29:39.287Z,1.40
2023-10-23T14:32:07.295Z,1.77
2023-10-23T14:34:34.523Z,1.33
2023-10-23T14:37:01.739Z,1.90
2023-10-23T14:39:28.877Z,1.67
2023-10-23T14:41:56.247Z,1.63
2023-10-23T14:44:26.597Z,2.67
2023-10-23T14:46:53.714Z,1.73
2023-10-23T14:49:22.939Z,1.50
2023-10-23T14:51:52.140Z,2.73
2023-10-23T14:54:19.140Z,1.80
2023-10-23T14:56:46.131Z,2.40
2023-10-23T14:59:13.593Z,2.43
2023-10-23T15:01:40.645Z,1.73
2023-10-23T15:04:08.047Z,2.07
2023-10-23T15:06:34.956Z,1.73
2023-10-23T15:09:01.878Z,2.20
2023-10-23T15:11:28.836Z,1.60
2023-10-23T15:13:55.860Z,2.47
2023-10-23T15:16:22.905Z,1.83
2023-10-23T15:18:53.032Z,2.30
2023-10-23T15:21:20.369Z,2.03
2023-10-23T15:23:47.341Z,1.60
2023-10-23T15:26:14.584Z,2.30
2023-10-23T15:28:42.015Z,2.43
2023-10-23T15:31:09.301Z,2.30
2023-10-23T15:33:37.115Z,2.10
2023-10-23T15:36:06.224Z,1.93
2023-10-23T15:38:34.103Z,2.50
2023-10-23T15:41:11.688Z,2.33
2023-10-23T15:43:39.789Z,2.20
2023-10-23T15:46:12.886Z,2.50
2023-10-23T15:48:40.731Z,2.30
2023-10-23T15:51:07.923Z,2.50
2023-10-23T15:53:34.899Z,2.73
2023-10-23T15:56:02.230Z,2.00
2023-10-23T15:58:29.802Z,2.50
2023-10-23T16:00:58.101Z,2.37
2023-10-23T16:03:25.382Z,2.60
2023-10-23T16:05:52.488Z,2.30
2023-10-23T16:08:19.601Z,2.30
2023-10-23T16:10:51.410Z,2.60
2023-10-23T16:13:19.707Z,2.23
2023-10-23T16:15:48.104Z,1.77
2023-10-23T16:18:18.748Z,2.17
2023-10-23T16:20:51.191Z,2.33
2023-10-23T16:23:18.483Z,2.23
2023-10-23T16:25:45.710Z,3.00
2023-10-23T16:28:13.870Z,2.80
2023-10-23T16:30:41.464Z,2.17
2023-10-23T16:33:11.964Z,2.30
2023-10-23T16:35:39.055Z,3.67
2023-10-23T16:38:07.254Z,3.57
2023-10-23T16:40:35.476Z,3.43
2023-10-23T16:43:03.191Z,2.87
2023-10-23T16:45:32.510Z,2.63
2023-10-23T16:48:01.327Z,2.60
2023-10-23T16:50:31.199Z,2.13
2023-10-23T16:53:01.900Z,1.40
2023-10-23T16:55:29.278Z,1.50
2023-10-23T16:57:57.359Z,1.53
2023-10-23T17:00:24.511Z,1.23
2023-10-23T17:02:51.703Z,1.50
2023-10-23T17:05:18.775Z,1.47
2023-10-23T17:07:45.900Z,1.30
2023-10-23T17:10:12.826Z,1.37
2023-10-23T17:12:39.850Z,1.37
2023-10-23T17:15:07.395Z,1.70
2023-10-23T17:17:35.548Z,1.40
2023-10-23T17:20:02.628Z,1.10
2023-10-23T17:22:29.601Z,1.97
2023-10-23T17:24:56.618Z,2.20
2023-10-23T17:27:23.689Z,1.83
2023-10-23T17:29:50.554Z,1.73
2023-10-23T17:32:17.488Z,1.73
2023-10-23T17:34:44.400Z,1.80
2023-10-23T17:37:11.407Z,1.87
2023-10-23T17:39:38.632Z,1.80
2023-10-23T17:42:05.769Z,1.50
2023-10-23T17:44:32.924Z,1.37
2023-10-23T17:46:59.972Z,1.80
2023-10-23T17:49:27.046Z,2.00
2023-10-23T17:51:55.902Z,1.40
2023-10-23T17:54:23.129Z,1.47
2023-10-23T17:56:50.001Z,1.67
2023-10-23T17:59:16.888Z,1.53
2023-10-23T18:01:44.470Z,2.20
2023-10-23T18:04:12.364Z,1.90
2023-10-23T18:06:39.754Z,1.93
2023-10-23T18:09:06.944Z,1.40
2023-10-23T18:11:34.296Z,1.90
2023-10-23T18:14:01.540Z,2.20
2023-10-23T18:16:29.166Z,1.73
2023-10-23T18:18:56.531Z,1.67
2023-10-23T18:21:24.256Z,1.73
2023-10-23T18:23:52.443Z,1.80
2023-10-23T18:26:19.925Z,1.80
2023-10-23T18:28:47.065Z,2.13
2023-10-23T18:31:15.060Z,1.93
2023-10-23T18:33:42.237Z,1.90
2023-10-23T18:36:19.864Z,1.90
2023-10-23T18:38:47.684Z,1.70
2023-10-23T18:41:18.951Z,1.50
2023-10-23T18:43:46.504Z,1.43
2023-10-23T18:46:14.714Z,1.93
2023-10-23T18:48:42.467Z,1.83
2023-10-23T18:51:12.982Z,1.40
2023-10-23T18:53:41.485Z,1.30
2023-10-23T18:56:08.500Z,1.60
2023-10-23T18:58:35.520Z,1.07
2023-10-23T19:01:09.100Z,1.80
2023-10-23T19:03:37.320Z,2.20
2023-10-23T19:06:04.386Z,1.73
2023-10-23T19:08:32.608Z,1.57
2023-10-23T19:10:59.999Z,1.47
2023-10-23T19:13:27.019Z,1.57
2023-10-23T19:16:01.233Z,1.87
2023-10-23T19:18:30.812Z,1.80
2023-10-23T19:21:14.182Z,1.67
2023-10-23T19:23:42.511Z,1.90
2023-10-23T19:26:13.356Z,1.90
2023-10-23T19:28:40.268Z,1.57
2023-10-23T19:31:23.122Z,1.70
2023-10-23T19:33:50.611Z,1.73
2023-10-23T19:36:19.696Z,1.70
2023-10-23T19:38:49.310Z,1.60
2023-10-23T19:41:19.238Z,2.00
2023-10-23T19:43:50.015Z,1.77
2023-10-23T19:46:20.749Z,2.07
2023-10-23T19:48:49.342Z,1.67
2023-10-23T19:51:20.706Z,1.80
2023-10-23T19:53:52.902Z,2.33
2023-10-23T19:56:28.077Z,2.30
2023-10-23T19:58:58.515Z,1.80
2023-10-23T20:01:25.562Z,1.83
2023-10-23T20:03:52.647Z,1.97
2023-10-23T20:06:19.588Z,1.93
2023-10-23T20:08:46.574Z,2.10
2023-10-23T20:11:13.781Z,1.57
2023-10-23T20:13:40.732Z,1.93
2023-10-23T20:16:07.740Z,2.33
2023-10-23T20:18:36.268Z,1.93
2023-10-23T20:21:04.650Z,2.50
2023-10-23T20:23:32.343Z,1.93
2023-10-23T20:25:59.354Z,1.83
2023-10-23T20:28:26.386Z,1.90
2023-10-23T20:30:53.421Z,1.80
2023-10-23T20:33:20.500Z,1.60
2023-10-23T20:35:47.559Z,1.77
2023-10-23T20:38:14.482Z,2.03
2023-10-23T20:40:41.592Z,2.30
2023-10-23T20:43:08.729Z,2.20
2023-10-23T20:45:38.831Z,2.37
2023-10-23T20:48:07.267Z,1.60
2023-10-23T20:50:34.223Z,1.60
2023-10-23T20:53:01.111Z,1.90
2023-10-23T20:55:28.189Z,1.90
2023-10-23T20:57:55.247Z,1.67
2023-10-23T21:00:22.269Z,1.80
2023-10-23T21:02:49.468Z,2.10
2023-10-23T21:05:16.547Z,1.93
2023-10-23T21:07:43.791Z,1.87
2023-10-23T21:10:11.233Z,1.93
2023-10-23T21:12:38.268Z,2.30
2023-10-23T21:15:05.558Z,1.80
2023-10-23T21:17:32.547Z,2.23
2023-10-23T21:19:59.573Z,2.00
2023-10-23T21:22:27.760Z,1.90
2023-10-23T21:24:54.906Z,1.70
2023-10-23T21:27:22.444Z,2.47
2023-10-23T21:29:49.500Z,2.00
2023-10-23T21:32:16.413Z,2.00
2023-10-23T21:34:43.560Z,2.13
2023-10-23T21:37:10.731Z,2.10
2023-10-23T21:39:37.726Z,2.00
2023-10-23T21:42:04.874Z,2.20
2023-10-23T21:44:31.854Z,2.73
2023-10-23T21:46:58.987Z,2.07
2023-10-23T21:49:26.078Z,2.20
2023-10-23T21:51:53.406Z,2.23
2023-10-23T21:54:20.541Z,1.90
2023-10-23T21:57:19.776Z,2.20
2023-10-23T21:59:35.532Z,2.60
2023-10-23T22:02:03.466Z,2.27
2023-10-23T22:04:30.694Z,3.03
2023-10-23T22:06:57.877Z,2.43
2023-10-23T22:09:25.115Z,2.30
2023-10-23T22:11:53.326Z,2.20
2023-10-23T22:14:20.545Z,2.23
2023-10-23T22:16:47.688Z,1.93
2023-10-23T22:19:14.717Z,1.93
2023-10-23T22:21:41.714Z,2.37
2023-10-23T22:24:08.810Z,2.57
2023-10-23T22:26:35.816Z,2.27
2023-10-23T22:29:03.249Z,2.40
2023-10-23T22:31:30.244Z,2.23
2023-10-23T22:33:57.268Z,2.37
2023-10-23T22:36:24.256Z,2.20
2023-10-23T22:38:51.436Z,2.27
2023-10-23T22:41:18.745Z,2.13
2023-10-23T22:43:45.707Z,2.33
2023-10-23T22:46:12.755Z,2.37
2023-10-23T22:48:39.844Z,2.23
2023-10-23T22:51:07.208Z,2.57
2023-10-23T22:53:36.762Z,2.13
2023-10-23T22:56:04.119Z,1.80
2023-10-23T22:58:32.293Z,2.03
2023-10-23T23:01:00.023Z,2.33
2023-10-23T23:03:27.893Z,2.10
2023-10-23T23:06:06.939Z,2.00
2023-10-23T23:08:40.306Z,2.10
2023-10-23T23:11:07.657Z,2.13
2023-10-23T23:13:35.178Z,2.20
2023-10-23T23:16:06.359Z,2.33
2023-10-23T23:18:36.420Z,2.33
2023-10-23T23:21:07.048Z,2.17
2023-10-23T23:23:34.190Z,2.77
2023-10-23T23:26:01.213Z,3.57
2023-10-23T23:28:28.152Z,3.23
2023-10-23T23:30:55.158Z,3.30
2023-10-23T23:33:22.261Z,3.10
2023-10-23T23:35:49.283Z,2.60
2023-10-23T23:38:16.335Z,3.20
2023-10-23T23:40:43.414Z,3.80
2023-10-23T23:43:10.434Z,2.70
2023-10-23T23:45:37.556Z,2.77
2023-10-23T23:48:04.863Z,2.97
2023-10-23T23:50:31.883Z,2.70
2023-10-23T23:52:59.444Z,2.70
2023-10-23T23:55:27.944Z,4.40
2023-10-23T23:57:54.963Z,4.37
